createdAt,value
2017-12-04T00:01:42.890Z,128.87
2017-12-04T00:04:11.182Z,140.20
2017-12-04T00:06:40.297Z,124.80
2017-12-04T00:09:09.715Z,119.67
2017-12-04T00:11:37.998Z,159.57
2017-12-04T00:14:06.346Z,117.83
2017-12-04T00:16:34.629Z,99.87
2017-12-04T00:19:03.677Z,146.50
2017-12-04T00:21:32.025Z,134.97
2017-12-04T00:24:00.697Z,121.27
2017-12-04T00:26:28.977Z,145.77
2017-12-04T00:28:58.094Z,129.27
2017-12-04T00:31:27.750Z,138.87
2017-12-04T00:33:56.319Z,157.67
2017-12-04T00:36:24.673Z,101.43
2017-12-04T00:38:52.958Z,143.13
2017-12-04T00:41:21.249Z,142.43
2017-12-04T00:43:50.734Z,138.83
2017-12-04T00:46:19.041Z,134.83
2017-12-04T00:48:47.329Z,124.43
2017-12-04T00:51:15.674Z,125.63
2017-12-04T00:53:45.348Z,144.70
2017-12-04T00:56:13.915Z,141.27
2017-12-04T00:58:43.405Z,171.93
2017-12-04T01:01:11.694Z,167.77
2017-12-04T01:03:40.749Z,159.87
2017-12-04T01:06:10.450Z,146.67
2017-12-04T01:08:39.745Z,143.37
2017-12-04T01:11:08.034Z,127.03
2017-12-04T01:13:37.885Z,135.90
2017-12-04T01:16:06.179Z,120.37
2017-12-04T01:18:35.234Z,109.37
2017-12-04T01:21:04.338Z,116.60
2017-12-04T01:23:33.758Z,114.77
2017-12-04T01:26:02.822Z,112.27
2017-12-04T01:28:31.166Z,126.37
2017-12-04T01:31:00.809Z,100.47
2017-12-04T01:33:29.360Z,96.40
2017-12-04T01:35:57.714Z,87.90
2017-12-04T01:38:27.349Z,122.17
2017-12-04T01:40:55.910Z,112.10
2017-12-04T01:43:27.985Z,148.53
2017-12-04T01:45:56.670Z,142.00
2017-12-04T01:48:25.718Z,107.07
2017-12-04T01:50:55.581Z,114.20
2017-12-04T01:53:23.885Z,111.10
2017-12-04T01:55:52.170Z,150.27
2017-12-04T01:58:21.652Z,126.70
2017-12-04T02:00:50.706Z,100.00
2017-12-04T02:03:18.993Z,99.77
2017-12-04T02:05:47.332Z,92.67
2017-12-04T02:08:16.875Z,117.30
2017-12-04T02:10:45.170Z,112.33
2017-12-04T02:13:13.658Z,113.77
2017-12-04T02:15:43.446Z,125.23
2017-12-04T02:18:12.934Z,112.40
2017-12-04T02:20:41.618Z,105.70
2017-12-04T02:23:10.421Z,91.17
2017-12-04T02:25:39.158Z,93.43
2017-12-04T02:28:08.579Z,109.07
2017-12-04T02:30:37.627Z,104.23
2017-12-04T02:33:05.971Z,128.30
2017-12-04T02:35:35.775Z,106.63
2017-12-04T02:38:35.985Z,113.67
2017-12-04T02:41:04.268Z,86.07
2017-12-04T02:43:33.909Z,117.97
2017-12-04T02:46:02.129Z,122.27
2017-12-04T02:48:30.418Z,138.40
2017-12-04T02:50:58.709Z,107.17
2017-12-04T02:53:27.835Z,123.40
2017-12-04T02:55:56.978Z,133.60
2017-12-04T02:58:25.262Z,111.70
2017-12-04T03:00:53.630Z,110.47
2017-12-04T03:03:21.918Z,110.03
2017-12-04T03:05:50.225Z,113.70
2017-12-04T03:08:18.561Z,107.43
2017-12-04T03:10:47.252Z,113.43
2017-12-04T03:13:15.542Z,119.83
2017-12-04T03:15:43.910Z,110.47
2017-12-04T03:18:12.200Z,109.27
2017-12-04T03:20:40.482Z,123.70
2017-12-04T03:23:10.642Z,134.57
2017-12-04T03:25:38.921Z,121.13
2017-12-04T03:28:07.992Z,82.63
2017-12-04T03:30:36.403Z,102.53
2017-12-04T03:33:04.731Z,99.37
2017-12-04T03:35:33.066Z,98.63
2017-12-04T03:38:02.187Z,116.03
2017-12-04T03:40:31.266Z,108.43
2017-12-04T03:42:59.579Z,96.60
2017-12-04T03:45:27.934Z,95.77
2017-12-04T03:47:56.218Z,101.83
2017-12-04T03:50:24.893Z,102.50
2017-12-04T03:52:53.237Z,100.20
2017-12-04T03:55:21.526Z,118.87
2017-12-04T03:57:50.634Z,130.10
2017-12-04T04:00:18.990Z,112.57
2017-12-04T04:02:48.051Z,127.43
2017-12-04T04:05:16.334Z,132.60
2017-12-04T04:07:44.690Z,117.40
2017-12-04T04:10:12.983Z,94.63
2017-12-04T04:12:42.414Z,100.00
2017-12-04T04:15:10.763Z,107.70
2017-12-04T04:17:39.041Z,88.93
2017-12-04T04:20:07.352Z,87.63
2017-12-04T04:22:35.730Z,94.27
2017-12-04T04:25:04.034Z,88.40
2017-12-04T04:27:32.351Z,115.53
2017-12-04T04:30:01.490Z,126.17
2017-12-04T04:32:29.838Z,92.83
2017-12-04T04:34:59.299Z,104.47
2017-12-04T04:37:27.670Z,101.50
2017-12-04T04:39:55.979Z,110.67
2017-12-04T04:42:25.051Z,95.63
2017-12-04T04:44:53.427Z,98.93
2017-12-04T04:47:21.747Z,88.43
2017-12-04T04:49:50.070Z,78.70
2017-12-04T04:52:18.439Z,75.83
2017-12-04T04:54:46.730Z,66.60
2017-12-04T04:57:15.051Z,67.40
2017-12-04T04:59:43.455Z,83.70
2017-12-04T05:02:11.755Z,71.93
2017-12-04T05:04:40.063Z,91.27
2017-12-04T05:07:08.444Z,78.47
2017-12-04T05:09:37.539Z,88.27
2017-12-04T05:12:05.840Z,88.60
2017-12-04T05:14:34.218Z,75.90
2017-12-04T05:17:02.547Z,85.50
2017-12-04T05:19:30.867Z,81.50
2017-12-04T05:22:00.731Z,84.00
2017-12-04T05:24:29.031Z,84.73
2017-12-04T05:26:57.319Z,80.33
2017-12-04T05:29:26.790Z,90.13
2017-12-04T05:31:55.842Z,74.80
2017-12-04T05:34:24.175Z,81.83
2017-12-04T05:36:54.030Z,87.17
2017-12-04T05:39:22.318Z,79.60
2017-12-04T05:41:50.622Z,81.27
2017-12-04T05:44:18.982Z,77.73
2017-12-04T05:46:47.303Z,80.77
2017-12-04T05:49:15.596Z,88.40
2017-12-04T05:51:45.460Z,91.23
2017-12-04T05:54:13.807Z,90.53
2017-12-04T05:56:42.877Z,81.30
2017-12-04T05:59:11.975Z,89.90
2017-12-04T06:01:40.313Z,71.30
2017-12-04T06:04:08.614Z,92.20
2017-12-04T06:06:37.383Z,106.03
2017-12-04T06:09:05.678Z,79.77
2017-12-04T06:11:34.062Z,91.93
2017-12-04T06:14:02.446Z,100.67
2017-12-04T06:16:30.762Z,97.30
2017-12-04T06:19:00.206Z,100.27
2017-12-04T06:21:28.574Z,106.90
2017-12-04T06:23:56.881Z,92.80
2017-12-04T06:26:25.195Z,104.43
2017-12-04T06:28:54.330Z,95.70
2017-12-04T06:31:22.662Z,104.50
2017-12-04T06:33:50.963Z,81.43
2017-12-04T06:36:19.314Z,92.33
2017-12-04T06:38:47.635Z,105.20
2017-12-04T06:41:15.955Z,124.77
2017-12-04T06:43:44.317Z,114.40
2017-12-04T06:46:12.998Z,91.80
2017-12-04T06:48:41.524Z,105.90
2017-12-04T06:51:11.396Z,91.73
2017-12-04T06:53:39.711Z,96.03
2017-12-04T06:56:08.007Z,104.27
2017-12-04T06:58:36.358Z,100.60
2017-12-04T07:01:05.460Z,104.33
2017-12-04T07:03:33.802Z,94.33
2017-12-04T07:06:02.182Z,98.77
2017-12-04T07:08:30.471Z,101.43
2017-12-04T07:10:58.783Z,96.97
2017-12-04T07:13:27.180Z,91.07
2017-12-04T07:15:55.491Z,108.30
2017-12-04T07:18:23.807Z,100.03
2017-12-04T07:20:52.561Z,96.17
2017-12-04T07:23:20.878Z,96.57
2017-12-04T07:25:49.182Z,96.20
2017-12-04T07:28:17.548Z,104.70
2017-12-04T07:30:45.867Z,109.73
2017-12-04T07:33:14.187Z,140.57
2017-12-04T07:35:43.323Z,114.37
2017-12-04T07:38:11.647Z,118.40
2017-12-04T07:40:41.321Z,107.10
2017-12-04T07:43:09.569Z,100.30
2017-12-04T07:47:48.927Z,104.90
2017-12-04T07:50:18.909Z,92.67
2017-12-04T07:52:47.213Z,76.97
2017-12-04T07:55:15.498Z,95.27
2017-12-04T07:57:43.857Z,93.67
2017-12-04T08:00:12.577Z,70.63
2017-12-04T08:02:40.895Z,73.90
2017-12-04T08:05:09.286Z,83.83
2017-12-04T08:07:37.579Z,72.70
2017-12-04T08:10:06.640Z,89.67
2017-12-04T08:12:34.986Z,80.43
2017-12-04T08:15:03.274Z,66.33
2017-12-04T08:17:31.586Z,73.93
2017-12-04T08:19:59.942Z,73.57
2017-12-04T08:22:28.238Z,71.43
2017-12-04T08:24:56.566Z,65.80
2017-12-04T08:27:24.965Z,61.17
2017-12-04T08:29:53.262Z,65.53
2017-12-04T08:32:21.634Z,63.10
2017-12-04T08:34:49.994Z,54.43
2017-12-04T08:37:19.807Z,65.50
2017-12-04T08:39:48.095Z,62.97
2017-12-04T08:42:18.383Z,69.97
2017-12-04T08:44:46.731Z,60.77
2017-12-04T08:47:15.795Z,65.63
2017-12-04T08:49:44.159Z,57.43
2017-12-04T08:52:12.476Z,61.97
2017-12-04T08:54:40.788Z,59.20
2017-12-04T08:57:09.153Z,57.43
2017-12-04T08:59:37.447Z,54.00
2017-12-04T09:02:06.523Z,69.03
2017-12-04T09:04:39.721Z,73.70
2017-12-04T09:07:04.023Z,45.40
2017-12-04T09:09:32.322Z,57.73
2017-12-04T09:12:00.690Z,48.63
2017-12-04T09:14:28.967Z,58.17
2017-12-04T09:16:57.668Z,58.17
2017-12-04T09:19:26.023Z,56.40
2017-12-04T09:21:55.135Z,52.07
2017-12-04T09:24:23.450Z,48.67
2017-12-04T09:26:51.809Z,49.53
2017-12-04T09:29:20.097Z,56.97
2017-12-04T09:31:48.456Z,51.73
2017-12-04T09:34:16.792Z,47.27
2017-12-04T09:36:45.094Z,57.43
2017-12-04T09:39:13.382Z,45.30
2017-12-04T09:41:41.752Z,46.97
2017-12-04T09:44:10.818Z,57.47
2017-12-04T09:46:39.199Z,48.97
2017-12-04T09:49:07.558Z,52.60
2017-12-04T09:51:35.891Z,53.93
2017-12-04T09:54:04.196Z,55.57
2017-12-04T09:56:32.550Z,42.47
2017-12-04T09:59:00.854Z,39.37
2017-12-04T10:01:29.147Z,43.23
2017-12-04T10:03:58.436Z,41.60
2017-12-04T10:06:26.750Z,45.63
2017-12-04T10:08:55.131Z,45.27
2017-12-04T10:11:24.252Z,50.87
2017-12-04T10:13:53.348Z,51.17
2017-12-04T10:16:21.649Z,40.77
2017-12-04T10:18:50.402Z,59.23
2017-12-04T10:21:18.717Z,41.63
2017-12-04T10:23:47.011Z,40.67
2017-12-04T10:26:15.371Z,49.17
2017-12-04T10:28:43.666Z,45.80
2017-12-04T10:31:11.974Z,45.03
2017-12-04T10:33:40.314Z,33.20
2017-12-04T10:36:08.599Z,35.40
2017-12-04T10:38:37.678Z,48.00
2017-12-04T10:41:06.043Z,44.20
2017-12-04T10:43:34.345Z,41.30
2017-12-04T10:46:02.656Z,42.23
2017-12-04T10:48:32.147Z,28.23
2017-12-04T10:51:01.202Z,42.97
2017-12-04T10:53:29.503Z,38.97
2017-12-04T10:55:57.872Z,35.67
2017-12-04T10:58:26.159Z,36.63
2017-12-04T11:00:54.454Z,46.10
2017-12-04T11:03:22.818Z,34.63
2017-12-04T11:05:51.117Z,33.03
2017-12-04T11:08:19.428Z,28.50
2017-12-04T11:10:48.056Z,39.50
2017-12-04T11:13:16.382Z,41.10
2017-12-04T11:15:44.687Z,39.60
2017-12-04T11:18:13.055Z,38.37
2017-12-04T11:20:41.364Z,34.50
2017-12-04T11:23:09.671Z,43.63
2017-12-04T11:25:38.036Z,27.70
2017-12-04T11:28:06.361Z,47.87
2017-12-04T11:30:35.083Z,38.87
2017-12-04T11:33:04.573Z,28.53
2017-12-04T11:35:34.027Z,45.83
2017-12-04T11:38:02.333Z,29.30
2017-12-04T11:40:30.695Z,42.13
2017-12-04T11:43:00.524Z,35.37
2017-12-04T11:45:29.590Z,35.27
2017-12-04T11:47:58.704Z,28.30
2017-12-04T11:50:27.022Z,29.20
2017-12-04T11:52:55.327Z,30.00
2017-12-04T11:55:23.683Z,46.50
2017-12-04T11:57:52.774Z,40.43
2017-12-04T12:00:21.083Z,37.30
2017-12-04T12:02:49.439Z,43.43
2017-12-04T12:05:18.502Z,33.30
2017-12-04T12:07:46.919Z,33.03
2017-12-04T12:10:15.281Z,36.53
2017-12-04T12:12:43.626Z,34.13
2017-12-04T12:15:11.947Z,28.23
2017-12-04T12:17:41.062Z,39.83
2017-12-04T12:20:10.127Z,30.03
2017-12-04T12:22:38.439Z,36.33
2017-12-04T12:25:06.814Z,33.80
2017-12-04T12:27:35.126Z,30.27
2017-12-04T12:30:03.448Z,28.80
2017-12-04T12:32:31.811Z,33.33
2017-12-04T12:35:00.135Z,30.50
2017-12-04T12:37:28.465Z,30.43
2017-12-04T12:39:56.832Z,44.63
2017-12-04T12:42:25.134Z,30.00
2017-12-04T12:44:54.204Z,32.07
2017-12-04T12:47:22.558Z,28.83
2017-12-04T12:49:51.852Z,35.13
2017-12-04T12:52:20.939Z,34.77
2017-12-04T12:54:49.586Z,34.47
2017-12-04T12:57:17.912Z,36.10
2017-12-04T12:59:48.394Z,30.40
2017-12-04T13:02:16.760Z,30.67
2017-12-04T13:04:45.055Z,27.10
2017-12-04T13:07:13.358Z,32.80
2017-12-04T13:09:42.482Z,31.47
2017-12-04T13:12:10.784Z,28.70
2017-12-04T13:14:39.191Z,31.87
2017-12-04T13:17:07.543Z,28.43
2017-12-04T13:19:35.841Z,29.10
2017-12-04T13:22:04.160Z,28.77
2017-12-04T13:24:33.303Z,19.80
2017-12-04T13:27:02.364Z,27.80
2017-12-04T13:29:30.638Z,30.27
2017-12-04T13:32:10.862Z,28.33
2017-12-04T13:34:51.161Z,28.00
2017-12-04T13:37:22.390Z,28.23
2017-12-04T13:39:52.043Z,36.30
2017-12-04T13:42:20.202Z,27.07
2017-12-04T13:44:49.686Z,28.07
2017-12-04T13:47:17.977Z,31.00
2017-12-04T13:49:46.262Z,22.67
2017-12-04T13:52:14.615Z,23.97
2017-12-04T13:54:42.907Z,29.17
2017-12-04T13:57:11.211Z,29.80
2017-12-04T13:59:39.549Z,36.13
2017-12-04T14:02:07.847Z,27.43
2017-12-04T14:04:36.211Z,21.53
2017-12-04T14:07:04.959Z,28.03
2017-12-04T14:09:33.266Z,19.27
2017-12-04T14:12:02.332Z,30.90
2017-12-04T14:14:31.116Z,27.63
2017-12-04T14:16:59.455Z,25.87
2017-12-04T14:19:27.738Z,25.97
2017-12-04T14:21:56.096Z,30.37
2017-12-04T14:24:24.400Z,19.17
2017-12-04T14:26:52.742Z,48.47
2017-12-04T14:29:21.095Z,20.13
2017-12-04T14:31:49.426Z,23.57
2017-12-04T14:34:18.128Z,24.30
2017-12-04T14:36:47.259Z,38.43
2017-12-04T14:39:16.302Z,25.63
2017-12-04T14:41:44.585Z,25.07
2017-12-04T14:44:13.327Z,22.50
2017-12-04T14:46:41.601Z,28.20
2017-12-04T14:49:09.967Z,21.53
2017-12-04T14:51:38.314Z,29.37
2017-12-04T14:54:06.602Z,27.00
2017-12-04T14:56:34.903Z,36.57
2017-12-04T14:59:04.138Z,23.33
2017-12-04T15:01:33.244Z,24.40
2017-12-04T15:04:01.531Z,30.30
2017-12-04T15:06:29.899Z,27.73
2017-12-04T15:08:58.479Z,23.03
2017-12-04T15:11:26.879Z,30.73
2017-12-04T15:13:56.775Z,24.83
2017-12-04T15:16:24.945Z,26.83
2017-12-04T15:18:53.790Z,31.63
2017-12-04T15:21:23.116Z,23.77
2017-12-04T15:23:51.405Z,38.00
2017-12-04T15:26:20.511Z,38.20
2017-12-04T15:28:48.943Z,28.90
2017-12-04T15:31:17.708Z,27.67
2017-12-04T15:33:46.027Z,33.83
2017-12-04T15:36:14.594Z,24.30
2017-12-04T15:38:43.735Z,29.77
2017-12-04T15:41:12.417Z,23.70
2017-12-04T15:43:41.310Z,26.27
2017-12-04T15:46:09.648Z,25.23
2017-12-04T15:48:39.182Z,25.30
2017-12-04T15:51:07.550Z,29.77
2017-12-04T15:53:35.867Z,28.50
2017-12-04T15:56:04.219Z,35.63
2017-12-04T15:58:32.813Z,26.60
2017-12-04T16:01:01.127Z,22.93
2017-12-04T16:03:30.549Z,27.33
2017-12-04T16:05:58.954Z,28.20
2017-12-04T16:08:27.438Z,25.80
2017-12-04T16:10:56.563Z,32.10
2017-12-04T16:13:25.824Z,34.33
2017-12-04T16:15:54.530Z,27.00
2017-12-04T16:18:22.815Z,20.20
2017-12-04T16:20:51.241Z,29.03
2017-12-04T16:23:19.641Z,21.27
2017-12-04T16:25:48.105Z,40.40
2017-12-04T16:28:17.306Z,26.80
2017-12-04T16:30:45.822Z,26.90
2017-12-04T16:33:14.114Z,21.87
2017-12-04T16:35:42.522Z,23.17
2017-12-04T16:38:10.812Z,22.20
2017-12-04T16:40:39.175Z,23.53
2017-12-04T16:43:08.391Z,30.10
2017-12-04T16:45:36.674Z,24.60
2017-12-04T16:48:05.040Z,21.75
2017-12-04T16:50:34.174Z,20.10
2017-12-04T16:53:02.711Z,35.97
2017-12-04T16:55:32.516Z,30.80
2017-12-04T16:58:01.959Z,27.73
2017-12-04T17:00:30.767Z,26.80
2017-12-04T17:03:00.204Z,26.17
2017-12-04T17:05:29.126Z,35.60
2017-12-04T17:07:57.478Z,34.30
2017-12-04T17:10:25.789Z,31.57
2017-12-04T17:12:55.148Z,24.10
2017-12-04T17:15:23.494Z,28.77
2017-12-04T17:17:51.770Z,27.90
2017-12-04T17:20:20.243Z,29.90
2017-12-04T17:22:48.570Z,22.23
2017-12-04T17:25:16.974Z,28.03
2017-12-04T17:27:45.855Z,26.50
2017-12-04T17:30:14.566Z,25.00
2017-12-04T17:32:42.871Z,36.13
2017-12-04T17:35:13.218Z,38.67
2017-12-04T17:37:41.510Z,26.17
2017-12-04T17:40:09.817Z,33.10
2017-12-04T17:42:38.598Z,25.93
2017-12-04T17:45:06.882Z,38.63
2017-12-04T17:47:35.156Z,30.23
2017-12-04T17:50:04.868Z,26.77
2017-12-04T17:52:33.030Z,46.30
2017-12-04T17:55:01.315Z,46.27
2017-12-04T17:57:29.655Z,28.70
2017-12-04T17:59:57.938Z,41.57
2017-12-04T18:02:26.230Z,28.00
2017-12-04T18:04:54.580Z,33.13
2017-12-04T18:07:22.930Z,25.17
2017-12-04T18:09:51.632Z,32.87
2017-12-04T18:12:19.993Z,30.60
2017-12-04T18:14:49.789Z,33.77
2017-12-04T18:17:18.077Z,31.50
2017-12-04T18:22:20.842Z,35.70
2017-12-04T18:24:51.601Z,31.73
2017-12-04T18:27:20.202Z,30.53
2017-12-04T18:29:49.314Z,36.70
2017-12-04T18:32:17.622Z,30.27
2017-12-04T18:34:47.130Z,36.83
2017-12-04T18:37:16.312Z,35.03
2017-12-04T18:39:46.210Z,33.53
2017-12-04T18:42:14.542Z,36.57
2017-12-04T18:44:42.893Z,38.13
2017-12-04T18:47:12.087Z,34.80
2017-12-04T18:49:40.448Z,41.27
2017-12-04T18:52:09.502Z,42.00
2017-12-04T18:54:37.794Z,33.00
2017-12-04T18:57:06.914Z,40.50
2017-12-04T18:59:35.231Z,28.67
2017-12-04T19:02:03.510Z,35.57
2017-12-04T19:04:32.250Z,39.30
2017-12-04T19:07:00.586Z,36.47
2017-12-04T19:09:28.883Z,33.10
2017-12-04T19:11:57.814Z,39.53
2017-12-04T19:14:26.493Z,33.73
2017-12-04T19:16:54.792Z,27.93
2017-12-04T19:19:23.126Z,33.60
2017-12-04T19:21:51.410Z,41.53
2017-12-04T19:24:19.686Z,25.90
2017-12-04T19:26:48.066Z,34.27
2017-12-04T19:29:17.123Z,28.60
2017-12-04T19:31:45.398Z,37.80
2017-12-04T19:34:14.533Z,43.20
2017-12-04T19:36:42.831Z,28.83
2017-12-04T19:39:11.145Z,38.40
2017-12-04T19:41:39.872Z,33.47
2017-12-04T19:44:08.163Z,33.40
2017-12-04T19:46:36.678Z,32.47
2017-12-04T19:49:05.030Z,42.53
2017-12-04T19:51:34.443Z,41.77
2017-12-04T19:54:02.717Z,46.00
2017-12-04T19:56:31.070Z,34.93
2017-12-04T19:59:00.509Z,38.20
2017-12-04T20:01:28.837Z,32.07
2017-12-04T20:03:57.166Z,37.23
2017-12-04T20:06:47.005Z,34.67
2017-12-04T20:09:16.335Z,36.93
2017-12-04T20:11:45.793Z,33.90
2017-12-04T20:14:14.139Z,40.13
2017-12-04T20:16:42.534Z,50.67
2017-12-04T20:19:10.870Z,34.50
2017-12-04T20:21:39.951Z,46.63
2017-12-04T20:24:08.374Z,44.20
2017-12-04T20:26:36.703Z,40.70
2017-12-04T20:29:06.324Z,36.87
2017-12-04T20:31:35.013Z,36.07
2017-12-04T20:34:04.079Z,39.77
2017-12-04T20:36:32.378Z,52.73
2017-12-04T20:39:00.718Z,45.13
2017-12-04T20:41:29.772Z,37.70
2017-12-04T20:43:59.562Z,36.90
2017-12-04T20:46:27.940Z,46.77
2017-12-04T20:48:56.994Z,38.30
2017-12-04T20:51:25.682Z,38.40
2017-12-04T20:53:54.030Z,44.10
2017-12-04T20:56:22.318Z,48.53
2017-12-04T20:58:50.618Z,44.73
2017-12-04T21:01:22.266Z,54.40
2017-12-04T21:03:50.414Z,40.50
2017-12-04T21:06:18.710Z,48.27
2017-12-04T21:08:59.714Z,43.07
2017-12-04T21:14:37.089Z,36.07
2017-12-04T21:17:17.730Z,55.50
2017-12-04T21:21:54.391Z,52.40
2017-12-04T21:24:23.810Z,46.10
2017-12-04T21:26:52.862Z,39.43
2017-12-04T21:29:21.254Z,37.27
2017-12-04T21:31:49.569Z,38.23
2017-12-04T21:34:17.890Z,48.40
2017-12-04T21:36:46.246Z,46.87
2017-12-04T21:39:14.915Z,42.83
2017-12-04T21:41:43.222Z,40.80
2017-12-04T21:44:12.343Z,39.47
2017-12-04T21:46:40.622Z,37.50
2017-12-04T21:49:10.419Z,53.60
2017-12-04T21:51:39.921Z,54.43
2017-12-04T21:54:08.970Z,52.13
2017-12-04T21:56:38.035Z,46.33
2017-12-04T21:59:06.945Z,58.70
2017-12-04T22:01:35.236Z,51.37
2017-12-04T22:04:03.502Z,46.17
2017-12-04T22:06:32.625Z,39.00
2017-12-04T22:09:00.907Z,51.97
2017-12-04T22:11:29.967Z,42.97
2017-12-04T22:13:59.078Z,53.53
2017-12-04T22:16:27.358Z,48.23
2017-12-04T22:18:55.656Z,47.90
2017-12-04T22:21:24.763Z,47.83
2017-12-04T22:23:54.179Z,42.87
2017-12-04T22:26:23.261Z,51.60
2017-12-04T22:28:51.604Z,42.70
2017-12-04T22:31:21.582Z,44.90
2017-12-04T22:33:49.870Z,31.73
2017-12-04T22:36:19.722Z,35.43
2017-12-04T22:38:48.006Z,36.83
2017-12-04T22:41:17.061Z,30.17
2017-12-04T22:43:46.175Z,34.20
2017-12-04T22:46:14.471Z,40.90
2017-12-04T22:48:42.757Z,34.13
2017-12-04T22:51:11.878Z,39.73
2017-12-04T22:53:40.959Z,36.13
2017-12-04T22:56:09.251Z,43.80
2017-12-04T22:58:37.809Z,40.07
2017-12-04T23:01:06.898Z,39.30
2017-12-04T23:03:36.043Z,34.73
2017-12-04T23:06:04.405Z,40.80
2017-12-04T23:08:33.094Z,36.53
2017-12-04T23:11:02.751Z,38.67
2017-12-04T23:13:30.998Z,46.53
2017-12-04T23:15:59.375Z,49.13
2017-12-04T23:18:29.021Z,36.67
2017-12-04T23:20:57.652Z,49.33
2017-12-04T23:23:26.022Z,46.60
2017-12-04T23:25:54.389Z,46.50
2017-12-04T23:28:24.097Z,51.77
2017-12-04T23:30:53.038Z,52.53
2017-12-04T23:33:21.443Z,53.40
2017-12-04T23:35:50.539Z,47.83
2017-12-04T23:38:19.578Z,47.37
2017-12-04T23:40:49.434Z,54.03
2017-12-04T23:43:17.784Z,52.23
2017-12-04T23:45:46.838Z,56.50
2017-12-04T23:48:15.121Z,47.60
2017-12-04T23:50:44.225Z,53.83
2017-12-04T23:53:13.270Z,50.97
2017-12-04T23:55:41.595Z,49.70
2017-12-04T23:58:09.979Z,50.00
